sensor_id;sensor_type;location;lat;lon;timestamp;pressure;altitude;pressure_sealevel;temperature;humidity
47082;BME280;33066;49.296;14.470;2023-02-17T00:01:08;97685.70;;;10.63;34.38
47082;BME280;33066;49.296;14.470;2023-02-17T00:03:27;97685.14;;;11.28;34.00
47082;BME280;33066;49.296;14.470;2023-02-17T00:05:52;97681.14;;;11.05;34.10
47082;BME280;33066;49.296;14.470;2023-02-17T00:08:18;97682.22;;;11.05;34.00
47082;BME280;33066;49.296;14.470;2023-02-17T00:10:43;97683.46;;;11.03;33.96
47082;BME280;33066;49.296;14.470;2023-02-17T00:13:08;97684.90;;;11.05;33.91
47082;BME280;33066;49.296;14.470;2023-02-17T00:15:33;97689.75;;;10.98;33.97
47082;BME280;33066;49.296;14.470;2023-02-17T00:17:59;97691.49;;;11.00;33.91
47082;BME280;33066;49.296;14.470;2023-02-17T00:20:24;97692.93;;;10.98;33.91
47082;BME280;33066;49.296;14.470;2023-02-17T00:22:49;97691.45;;;10.89;33.93
47082;BME280;33066;49.296;14.470;2023-02-17T00:25:16;97687.20;;;10.93;34.02
47082;BME280;33066;49.296;14.470;2023-02-17T00:27:40;97688.76;;;10.92;33.85
47082;BME280;33066;49.296;14.470;2023-02-17T00:30:07;97682.75;;;10.88;33.89
47082;BME280;33066;49.296;14.470;2023-02-17T00:32:31;97683.17;;;10.89;33.91
47082;BME280;33066;49.296;14.470;2023-02-17T00:34:57;97680.77;;;10.79;34.10
47082;BME280;33066;49.296;14.470;2023-02-17T00:37:23;97673.63;;;10.77;34.13
47082;BME280;33066;49.296;14.470;2023-02-17T00:39:49;97669.11;;;10.78;34.27
47082;BME280;33066;49.296;14.470;2023-02-17T00:42:14;97661.44;;;11.11;34.21
47082;BME280;33066;49.296;14.470;2023-02-17T00:44:39;97660.79;;;10.89;34.10
47082;BME280;33066;49.296;14.470;2023-02-17T00:47:04;97659.87;;;10.89;34.09
47082;BME280;33066;49.296;14.470;2023-02-17T00:49:30;97661.19;;;10.77;34.15
47082;BME280;33066;49.296;14.470;2023-02-17T00:51:59;97661.96;;;10.65;34.24
47082;BME280;33066;49.296;14.470;2023-02-17T00:54:20;97655.73;;;10.61;34.19
47082;BME280;33066;49.296;14.470;2023-02-17T00:56:46;97652.22;;;10.86;34.12
47082;BME280;33066;49.296;14.470;2023-02-17T00:59:13;97651.24;;;10.60;34.21
47082;BME280;33066;49.296;14.470;2023-02-17T01:01:38;97643.63;;;10.91;34.56
47082;BME280;33066;49.296;14.470;2023-02-17T01:04:03;97636.82;;;11.18;34.67
47082;BME280;33066;49.296;14.470;2023-02-17T01:06:31;97625.77;;;10.85;34.62
47082;BME280;33066;49.296;14.470;2023-02-17T01:08:54;97622.66;;;10.59;34.85
47082;BME280;33066;49.296;14.470;2023-02-17T01:11:21;97618.12;;;10.58;34.97
47082;BME280;33066;49.296;14.470;2023-02-17T01:13:45;97617.04;;;10.56;34.91
47082;BME280;33066;49.296;14.470;2023-02-17T01:16:15;97616.02;;;11.00;35.05
47082;BME280;33066;49.296;14.470;2023-02-17T01:18:35;97618.25;;;10.85;35.02
47082;BME280;33066;49.296;14.470;2023-02-17T01:21:01;97619.83;;;10.56;35.05
47082;BME280;33066;49.296;14.470;2023-02-17T01:23:26;97619.48;;;11.01;35.28
47082;BME280;33066;49.296;14.470;2023-02-17T01:25:51;97623.40;;;10.75;35.22
47082;BME280;33066;49.296;14.470;2023-02-17T01:28:19;97628.81;;;10.51;35.18
47082;BME280;33066;49.296;14.470;2023-02-17T01:30:42;97628.32;;;10.49;35.41
47082;BME280;33066;49.296;14.470;2023-02-17T01:33:07;97628.65;;;10.62;35.48
47082;BME280;33066;49.296;14.470;2023-02-17T01:35:33;97624.49;;;10.64;35.36
47082;BME280;33066;49.296;14.470;2023-02-17T01:37:59;97614.26;;;10.57;35.45
47082;BME280;33066;49.296;14.470;2023-02-17T01:40:24;97609.91;;;10.56;35.10
47082;BME280;33066;49.296;14.470;2023-02-17T01:42:50;97602.64;;;10.92;34.55
47082;BME280;33066;49.296;14.470;2023-02-17T01:45:28;97599.33;;;10.88;34.11
47082;BME280;33066;49.296;14.470;2023-02-17T01:47:40;97601.19;;;10.79;33.95
47082;BME280;33066;49.296;14.470;2023-02-17T01:50:06;97599.75;;;11.10;33.87
47082;BME280;33066;49.296;14.470;2023-02-17T01:52:31;97599.56;;;10.95;33.79
47082;BME280;33066;49.296;14.470;2023-02-17T01:55:01;97600.52;;;10.87;34.28
47082;BME280;33066;49.296;14.470;2023-02-17T01:57:27;97605.94;;;11.02;34.78
47082;BME280;33066;49.296;14.470;2023-02-17T01:59:49;97611.75;;;10.74;35.05
47082;BME280;33066;49.296;14.470;2023-02-17T02:02:15;97609.47;;;10.63;35.25
47082;BME280;33066;49.296;14.470;2023-02-17T02:04:43;97604.84;;;10.81;35.33
47082;BME280;33066;49.296;14.470;2023-02-17T02:07:09;97604.21;;;10.73;35.20
47082;BME280;33066;49.296;14.470;2023-02-17T02:09:34;97594.50;;;10.46;35.40
47082;BME280;33066;49.296;14.470;2023-02-17T02:11:57;97593.03;;;10.52;35.40
47082;BME280;33066;49.296;14.470;2023-02-17T02:14:21;97592.80;;;10.69;35.49
47082;BME280;33066;49.296;14.470;2023-02-17T02:16:54;97587.69;;;10.81;35.49
47082;BME280;33066;49.296;14.470;2023-02-17T02:24:15;97582.20;;;10.56;35.73
47082;BME280;33066;49.296;14.470;2023-02-17T02:26:45;97580.58;;;10.90;35.44
47082;BME280;33066;49.296;14.470;2023-02-17T02:29:11;97573.89;;;10.63;35.49
47082;BME280;33066;49.296;14.470;2023-02-17T02:31:39;97567.02;;;10.64;35.68
47082;BME280;33066;49.296;14.470;2023-02-17T02:33:49;97563.84;;;10.48;35.85
47082;BME280;33066;49.296;14.470;2023-02-17T02:36:12;97564.73;;;10.71;35.86
47082;BME280;33066;49.296;14.470;2023-02-17T02:38:40;97564.76;;;10.61;35.92
47082;BME280;33066;49.296;14.470;2023-02-17T02:41:07;97567.32;;;10.47;35.98
47082;BME280;33066;49.296;14.470;2023-02-17T02:43:29;97566.92;;;9.97;36.34
47082;BME280;33066;49.296;14.470;2023-02-17T02:45:54;97566.66;;;9.89;36.47
47082;BME280;33066;49.296;14.470;2023-02-17T02:48:19;97563.47;;;10.23;36.35
47082;BME280;33066;49.296;14.470;2023-02-17T02:50:57;97560.67;;;10.28;36.26
47082;BME280;33066;49.296;14.470;2023-02-17T02:55:47;97564.31;;;10.11;36.24
47082;BME280;33066;49.296;14.470;2023-02-17T02:58:05;97561.55;;;10.12;36.23
47082;BME280;33066;49.296;14.470;2023-02-17T03:00:32;97561.99;;;10.03;36.27
47082;BME280;33066;49.296;14.470;2023-02-17T03:02:55;97556.59;;;10.06;36.20
47082;BME280;33066;49.296;14.470;2023-02-17T03:05:24;97553.99;;;10.08;36.46
47082;BME280;33066;49.296;14.470;2023-02-17T03:07:47;97549.44;;;10.40;36.29
47082;BME280;33066;49.296;14.470;2023-02-17T03:10:07;97547.94;;;10.12;36.28
47082;BME280;33066;49.296;14.470;2023-02-17T03:12:35;97549.55;;;10.11;36.19
47082;BME280;33066;49.296;14.470;2023-02-17T03:15:02;97549.16;;;10.09;36.23
47082;BME280;33066;49.296;14.470;2023-02-17T03:17:24;97552.45;;;10.08;36.14
47082;BME280;33066;49.296;14.470;2023-02-17T03:19:48;97548.43;;;9.81;36.07
47082;BME280;33066;49.296;14.470;2023-02-17T03:22:16;97547.75;;;10.03;36.16
47082;BME280;33066;49.296;14.470;2023-02-17T03:24:39;97543.20;;;10.06;36.13
47082;BME280;33066;49.296;14.470;2023-02-17T03:27:04;97538.79;;;10.02;36.12
47082;BME280;33066;49.296;14.470;2023-02-17T03:29:30;97540.38;;;9.79;35.97
47082;BME280;33066;49.296;14.470;2023-02-17T03:31:57;97542.77;;;9.73;35.95
47082;BME280;33066;49.296;14.470;2023-02-17T03:34:21;97540.30;;;9.65;36.13
47082;BME280;33066;49.296;14.470;2023-02-17T03:36:46;97540.09;;;9.82;36.08
47082;BME280;33066;49.296;14.470;2023-02-17T03:39:12;97540.80;;;9.79;36.03
47082;BME280;33066;49.296;14.470;2023-02-17T03:41:37;97540.20;;;9.74;36.05
47082;BME280;33066;49.296;14.470;2023-02-17T03:44:03;97537.69;;;9.72;36.10
47082;BME280;33066;49.296;14.470;2023-02-17T03:46:30;97533.72;;;9.70;36.08
47082;BME280;33066;49.296;14.470;2023-02-17T03:48:55;97535.72;;;9.63;36.15
47082;BME280;33066;49.296;14.470;2023-02-17T03:51:22;97532.89;;;9.68;36.17
47082;BME280;33066;49.296;14.470;2023-02-17T03:53:47;97531.30;;;9.87;36.14
47082;BME280;33066;49.296;14.470;2023-02-17T03:56:13;97528.45;;;9.85;36.06
47082;BME280;33066;49.296;14.470;2023-02-17T03:58:38;97529.05;;;9.87;36.09
47082;BME280;33066;49.296;14.470;2023-02-17T04:01:04;97524.91;;;9.59;36.08
47082;BME280;33066;49.296;14.470;2023-02-17T04:03:29;97523.06;;;9.72;35.96
47082;BME280;33066;49.296;14.470;2023-02-17T04:05:55;97523.42;;;9.40;36.05
47082;BME280;33066;49.296;14.470;2023-02-17T04:08:20;97521.46;;;9.63;36.11
47082;BME280;33066;49.296;14.470;2023-02-17T04:13:00;97521.87;;;9.39;35.28
47082;BME280;33066;49.296;14.470;2023-02-17T04:15:25;97521.59;;;9.77;35.36
47082;BME280;33066;49.296;14.470;2023-02-17T04:17:51;97522.01;;;9.63;35.49
47082;BME280;33066;49.296;14.470;2023-02-17T04:20:16;97517.78;;;9.42;35.50
47082;BME280;33066;49.296;14.470;2023-02-17T04:22:41;97516.45;;;9.48;35.63
47082;BME280;33066;49.296;14.470;2023-02-17T04:25:07;97519.42;;;9.43;35.67
47082;BME280;33066;49.296;14.470;2023-02-17T04:27:32;97518.21;;;9.50;35.69
47082;BME280;33066;49.296;14.470;2023-02-17T04:29:57;97520.76;;;9.56;35.66
47082;BME280;33066;49.296;14.470;2023-02-17T04:32:22;97518.99;;;9.73;35.70
47082;BME280;33066;49.296;14.470;2023-02-17T04:34:47;97521.95;;;9.77;35.72
47082;BME280;33066;49.296;14.470;2023-02-17T04:37:14;97518.86;;;9.57;35.86
47082;BME280;33066;49.296;14.470;2023-02-17T04:39:38;97513.79;;;9.35;35.88
47082;BME280;33066;49.296;14.470;2023-02-17T04:42:04;97508.26;;;9.47;35.98
47082;BME280;33066;49.296;14.470;2023-02-17T04:44:30;97507.38;;;9.47;35.90
47082;BME280;33066;49.296;14.470;2023-02-17T04:46:55;97507.30;;;9.25;35.79
47082;BME280;33066;49.296;14.470;2023-02-17T04:49:20;97506.63;;;9.53;35.89
47082;BME280;33066;49.296;14.470;2023-02-17T04:51:46;97505.55;;;9.73;36.00
47082;BME280;33066;49.296;14.470;2023-02-17T04:54:11;97504.05;;;9.56;35.93
47082;BME280;33066;49.296;14.470;2023-02-17T04:56:38;97499.72;;;9.57;36.00
47082;BME280;33066;49.296;14.470;2023-02-17T04:59:02;97496.27;;;9.43;35.86
47082;BME280;33066;49.296;14.470;2023-02-17T05:01:28;97499.96;;;9.32;35.95
47082;BME280;33066;49.296;14.470;2023-02-17T05:03:54;97501.17;;;9.86;36.55
47082;BME280;33066;49.296;14.470;2023-02-17T05:06:19;97494.20;;;9.43;36.31
47082;BME280;33066;49.296;14.470;2023-02-17T05:08:44;97490.52;;;9.66;36.14
47082;BME280;33066;49.296;14.470;2023-02-17T05:11:10;97493.43;;;9.51;36.31
47082;BME280;33066;49.296;14.470;2023-02-17T05:13:35;97491.92;;;9.64;35.95
47082;BME280;33066;49.296;14.470;2023-02-17T05:16:00;97492.82;;;9.77;36.14
47082;BME280;33066;49.296;14.470;2023-02-17T05:18:26;97489.31;;;9.42;37.13
47082;BME280;33066;49.296;14.470;2023-02-17T05:20:51;97478.53;;;9.38;36.92
47082;BME280;33066;49.296;14.470;2023-02-17T05:23:17;97473.23;;;9.41;36.27
47082;BME280;33066;49.296;14.470;2023-02-17T05:25:43;97467.35;;;9.44;36.36
47082;BME280;33066;49.296;14.470;2023-02-17T05:28:08;97467.36;;;9.56;36.52
47082;BME280;33066;49.296;14.470;2023-02-17T05:30:34;97465.49;;;9.58;36.57
47082;BME280;33066;49.296;14.470;2023-02-17T05:32:59;97471.50;;;9.62;37.11
47082;BME280;33066;49.296;14.470;2023-02-17T05:35:25;97473.30;;;9.49;37.29
47082;BME280;33066;49.296;14.470;2023-02-17T05:37:50;97476.50;;;9.41;37.82
47082;BME280;33066;49.296;14.470;2023-02-17T05:40:15;97475.96;;;9.57;37.99
47082;BME280;33066;49.296;14.470;2023-02-17T05:42:40;97476.93;;;9.96;37.03
47082;BME280;33066;49.296;14.470;2023-02-17T05:45:07;97472.94;;;9.83;36.65
47082;BME280;33066;49.296;14.470;2023-02-17T05:47:31;97472.53;;;10.11;36.31
47082;BME280;33066;49.296;14.470;2023-02-17T05:49:57;97473.93;;;9.84;36.46
47082;BME280;33066;49.296;14.470;2023-02-17T05:52:22;97469.87;;;9.84;36.43
47082;BME280;33066;49.296;14.470;2023-02-17T05:54:50;97464.38;;;9.88;36.15
47082;BME280;33066;49.296;14.470;2023-02-17T05:57:14;97465.87;;;9.82;36.22
47082;BME280;33066;49.296;14.470;2023-02-17T05:59:39;97465.55;;;9.65;36.17
47082;BME280;33066;49.296;14.470;2023-02-17T06:02:05;97467.89;;;9.59;37.20
47082;BME280;33066;49.296;14.470;2023-02-17T06:04:30;97468.20;;;9.66;36.68
47082;BME280;33066;49.296;14.470;2023-02-17T06:06:55;97471.35;;;9.73;36.49
47082;BME280;33066;49.296;14.470;2023-02-17T06:09:21;97472.73;;;9.73;36.36
47082;BME280;33066;49.296;14.470;2023-02-17T06:11:46;97471.98;;;9.79;36.50
47082;BME280;33066;49.296;14.470;2023-02-17T06:14:12;97475.48;;;9.85;36.52
47082;BME280;33066;49.296;14.470;2023-02-17T06:16:37;97483.32;;;10.22;36.38
47082;BME280;33066;49.296;14.470;2023-02-17T06:19:03;97483.98;;;9.87;36.21
47082;BME280;33066;49.296;14.470;2023-02-17T06:21:28;97477.59;;;10.16;36.24
47082;BME280;33066;49.296;14.470;2023-02-17T06:23:53;97469.83;;;10.06;36.14
47082;BME280;33066;49.296;14.470;2023-02-17T06:26:20;97472.81;;;10.07;35.79
47082;BME280;33066;49.296;14.470;2023-02-17T06:28:44;97473.64;;;10.27;35.76
47082;BME280;33066;49.296;14.470;2023-02-17T06:31:09;97478.95;;;9.67;35.86
47082;BME280;33066;49.296;14.470;2023-02-17T06:33:35;97476.71;;;10.04;36.13
47082;BME280;33066;49.296;14.470;2023-02-17T06:36:00;97474.50;;;10.05;36.13
47082;BME280;33066;49.296;14.470;2023-02-17T06:38:25;97468.99;;;10.07;36.04
47082;BME280;33066;49.296;14.470;2023-02-17T06:40:51;97470.99;;;10.13;35.97
47082;BME280;33066;49.296;14.470;2023-02-17T06:43:16;97473.48;;;9.59;35.91
47082;BME280;33066;49.296;14.470;2023-02-17T06:45:43;97470.18;;;10.16;35.63
47082;BME280;33066;49.296;14.470;2023-02-17T06:48:07;97473.90;;;10.23;35.98
47082;BME280;33066;49.296;14.470;2023-02-17T06:50:33;97474.06;;;10.18;36.10
47082;BME280;33066;49.296;14.470;2023-02-17T06:52:59;97475.54;;;10.37;36.02
47082;BME280;33066;49.296;14.470;2023-02-17T06:55:24;97475.67;;;10.47;36.04
47082;BME280;33066;49.296;14.470;2023-02-17T06:57:50;97475.36;;;10.63;35.85
47082;BME280;33066;49.296;14.470;2023-02-17T07:00:17;97473.37;;;10.75;35.62
47082;BME280;33066;49.296;14.470;2023-02-17T07:02:41;97470.20;;;10.37;35.76
47082;BME280;33066;49.296;14.470;2023-02-17T07:05:07;97468.91;;;10.43;35.75
47082;BME280;33066;49.296;14.470;2023-02-17T07:07:32;97470.72;;;10.57;35.63
47082;BME280;33066;49.296;14.470;2023-02-17T07:09:58;97474.21;;;10.56;35.78
47082;BME280;33066;49.296;14.470;2023-02-17T07:12:23;97473.69;;;10.57;35.96
47082;BME280;33066;49.296;14.470;2023-02-17T07:14:48;97469.53;;;10.55;36.25
47082;BME280;33066;49.296;14.470;2023-02-17T07:17:14;97476.05;;;10.56;36.69
47082;BME280;33066;49.296;14.470;2023-02-17T07:19:40;97471.88;;;10.74;36.73
47082;BME280;33066;49.296;14.470;2023-02-17T07:22:05;97466.74;;;10.84;36.83
47082;BME280;33066;49.296;14.470;2023-02-17T07:24:31;97466.07;;;10.94;37.15
47082;BME280;33066;49.296;14.470;2023-02-17T07:26:58;97459.86;;;11.35;37.13
47082;BME280;33066;49.296;14.470;2023-02-17T07:29:22;97453.58;;;11.23;37.23
47082;BME280;33066;49.296;14.470;2023-02-17T07:31:47;97454.80;;;11.31;37.38
47082;BME280;33066;49.296;14.470;2023-02-17T07:34:12;97454.37;;;11.59;37.23
47082;BME280;33066;49.296;14.470;2023-02-17T07:36:37;97452.45;;;11.80;37.22
47082;BME280;33066;49.296;14.470;2023-02-17T07:39:03;97457.28;;;11.91;37.17
47082;BME280;33066;49.296;14.470;2023-02-17T07:41:29;97455.27;;;11.72;37.30
47082;BME280;33066;49.296;14.470;2023-02-17T07:43:55;97454.09;;;11.93;37.26
47082;BME280;33066;49.296;14.470;2023-02-17T07:46:19;97458.41;;;11.73;37.17
47082;BME280;33066;49.296;14.470;2023-02-17T07:48:45;97462.04;;;11.80;37.34
47082;BME280;33066;49.296;14.470;2023-02-17T07:51:14;97461.71;;;11.93;37.31
47082;BME280;33066;49.296;14.470;2023-02-17T07:53:36;97459.05;;;11.85;37.17
47082;BME280;33066;49.296;14.470;2023-02-17T07:56:01;97456.53;;;12.28;36.99
47082;BME280;33066;49.296;14.470;2023-02-17T07:58:27;97452.20;;;12.27;36.65
47082;BME280;33066;49.296;14.470;2023-02-17T08:00:52;97453.62;;;12.28;36.30
47082;BME280;33066;49.296;14.470;2023-02-17T08:03:18;97449.98;;;12.25;36.07
47082;BME280;33066;49.296;14.470;2023-02-17T08:05:44;97448.03;;;12.29;36.10
47082;BME280;33066;49.296;14.470;2023-02-17T08:08:09;97454.74;;;12.42;35.92
47082;BME280;33066;49.296;14.470;2023-02-17T08:10:36;97451.21;;;12.45;35.72
47082;BME280;33066;49.296;14.470;2023-02-17T08:13:00;97450.05;;;12.45;35.42
47082;BME280;33066;49.296;14.470;2023-02-17T08:15:26;97451.42;;;12.54;35.26
47082;BME280;33066;49.296;14.470;2023-02-17T08:17:51;97451.38;;;12.63;35.12
47082;BME280;33066;49.296;14.470;2023-02-17T08:20:17;97450.49;;;12.64;34.95
47082;BME280;33066;49.296;14.470;2023-02-17T08:22:42;97449.14;;;12.44;34.95
47082;BME280;33066;49.296;14.470;2023-02-17T08:25:07;97453.07;;;12.90;34.79
47082;BME280;33066;49.296;14.470;2023-02-17T08:27:32;97449.17;;;12.65;34.75
47082;BME280;33066;49.296;14.470;2023-02-17T08:29:57;97452.07;;;13.01;34.71
47082;BME280;33066;49.296;14.470;2023-02-17T08:32:23;97447.88;;;13.00;34.72
47082;BME280;33066;49.296;14.470;2023-02-17T08:34:48;97453.01;;;12.58;34.78
47082;BME280;33066;49.296;14.470;2023-02-17T08:37:13;97453.51;;;12.84;34.70
47082;BME280;33066;49.296;14.470;2023-02-17T08:39:39;97444.73;;;12.88;34.77
47082;BME280;33066;49.296;14.470;2023-02-17T08:42:06;97451.02;;;12.92;34.93
47082;BME280;33066;49.296;14.470;2023-02-17T08:44:32;97452.38;;;13.10;34.84
47082;BME280;33066;49.296;14.470;2023-02-17T08:46:55;97460.24;;;12.92;34.89
47082;BME280;33066;49.296;14.470;2023-02-17T08:49:23;97457.94;;;13.20;35.10
47082;BME280;33066;49.296;14.470;2023-02-17T08:51:47;97455.08;;;12.90;35.38
47082;BME280;33066;49.296;14.470;2023-02-17T08:54:12;97444.83;;;12.85;35.72
47082;BME280;33066;49.296;14.470;2023-02-17T08:56:37;97441.58;;;12.89;35.85
47082;BME280;33066;49.296;14.470;2023-02-17T08:59:02;97442.75;;;12.82;36.09
47082;BME280;33066;49.296;14.470;2023-02-17T09:01:28;97446.81;;;12.91;36.40
47082;BME280;33066;49.296;14.470;2023-02-17T09:03:53;97441.49;;;12.91;36.49
47082;BME280;33066;49.296;14.470;2023-02-17T09:06:20;97445.89;;;12.99;36.54
47082;BME280;33066;49.296;14.470;2023-02-17T09:08:44;97439.61;;;13.22;36.58
47082;BME280;33066;49.296;14.470;2023-02-17T09:11:10;97440.73;;;13.33;36.55
47082;BME280;33066;49.296;14.470;2023-02-17T09:13:35;97431.84;;;12.79;36.63
47082;BME280;33066;49.296;14.470;2023-02-17T09:16:00;97443.16;;;13.03;36.72
47082;BME280;33066;49.296;14.470;2023-02-17T09:18:25;97439.70;;;13.10;36.80
47082;BME280;33066;49.296;14.470;2023-02-17T09:20:50;97438.82;;;13.07;36.67
47082;BME280;33066;49.296;14.470;2023-02-17T09:23:16;97432.34;;;13.08;36.77
47082;BME280;33066;49.296;14.470;2023-02-17T09:25:41;97431.65;;;13.03;36.79
47082;BME280;33066;49.296;14.470;2023-02-17T09:28:07;97430.06;;;13.02;36.94
47082;BME280;33066;49.296;14.470;2023-02-17T09:30:32;97429.18;;;12.86;36.97
47082;BME280;33066;49.296;14.470;2023-02-17T09:32:57;97429.71;;;13.26;37.07
47082;BME280;33066;49.296;14.470;2023-02-17T09:35:25;97430.87;;;13.09;37.10
47082;BME280;33066;49.296;14.470;2023-02-17T09:37:49;97431.09;;;13.26;36.92
47082;BME280;33066;49.296;14.470;2023-02-17T09:40:17;97426.47;;;13.36;36.83
47082;BME280;33066;49.296;14.470;2023-02-17T09:42:39;97433.91;;;13.34;36.78
47082;BME280;33066;49.296;14.470;2023-02-17T09:45:06;97433.99;;;13.08;36.86
47082;BME280;33066;49.296;14.470;2023-02-17T09:47:33;97427.25;;;13.48;36.74
47082;BME280;33066;49.296;14.470;2023-02-17T09:49:59;97422.75;;;13.31;36.76
47082;BME280;33066;49.296;14.470;2023-02-17T09:52:27;97420.85;;;13.64;36.61
47082;BME280;33066;49.296;14.470;2023-02-17T09:54:55;97419.59;;;13.38;36.59
47082;BME280;33066;49.296;14.470;2023-02-17T09:57:15;97422.71;;;13.61;36.64
47082;BME280;33066;49.296;14.470;2023-02-17T09:59:42;97426.11;;;13.69;36.58
47082;BME280;33066;49.296;14.470;2023-02-17T10:02:10;97424.06;;;13.75;36.48
47082;BME280;33066;49.296;14.470;2023-02-17T10:04:33;97420.70;;;13.68;36.57
47082;BME280;33066;49.296;14.470;2023-02-17T10:06:58;97418.26;;;13.43;37.01
47082;BME280;33066;49.296;14.470;2023-02-17T10:09:23;97418.54;;;13.45;37.03
47082;BME280;33066;49.296;14.470;2023-02-17T10:11:51;97423.13;;;13.21;37.34
47082;BME280;33066;49.296;14.470;2023-02-17T10:14:13;97417.62;;;13.27;37.37
47082;BME280;33066;49.296;14.470;2023-02-17T10:16:41;97427.95;;;13.46;37.33
47082;BME280;33066;49.296;14.470;2023-02-17T10:19:09;97424.57;;;13.42;37.45
47082;BME280;33066;49.296;14.470;2023-02-17T10:21:29;97425.19;;;13.69;37.31
47082;BME280;33066;49.296;14.470;2023-02-17T10:23:53;97429.24;;;13.50;37.32
47082;BME280;33066;49.296;14.470;2023-02-17T10:26:24;97437.91;;;13.51;37.37
47082;BME280;33066;49.296;14.470;2023-02-17T10:28:49;97433.06;;;13.87;37.31
47082;BME280;33066;49.296;14.470;2023-02-17T10:31:12;97427.06;;;13.98;37.21
47082;BME280;33066;49.296;14.470;2023-02-17T10:33:35;97426.90;;;13.69;37.34
47082;BME280;33066;49.296;14.470;2023-02-17T10:38:33;97422.59;;;13.85;37.57
47082;BME280;33066;49.296;14.470;2023-02-17T10:40:50;97419.05;;;13.97;37.54
47082;BME280;33066;49.296;14.470;2023-02-17T10:43:20;97415.31;;;13.99;37.57
47082;BME280;33066;49.296;14.470;2023-02-17T10:45:42;97404.43;;;13.72;37.57
47082;BME280;33066;49.296;14.470;2023-02-17T10:48:07;97398.22;;;14.07;37.57
47082;BME280;33066;49.296;14.470;2023-02-17T10:50:30;97396.14;;;14.17;37.38
47082;BME280;33066;49.296;14.470;2023-02-17T10:52:56;97388.28;;;13.95;37.51
47082;BME280;33066;49.296;14.470;2023-02-17T10:55:31;97386.68;;;14.15;37.55
47082;BME280;33066;49.296;14.470;2023-02-17T10:57:51;97382.86;;;13.95;37.57
47082;BME280;33066;49.296;14.470;2023-02-17T11:00:15;97384.18;;;13.88;37.67
47082;BME280;33066;49.296;14.470;2023-02-17T11:02:42;97387.36;;;13.28;38.12
47082;BME280;33066;49.296;14.470;2023-02-17T11:05:04;97384.32;;;13.80;38.15
47082;BME280;33066;49.296;14.470;2023-02-17T11:07:33;97387.80;;;13.59;38.18
47082;BME280;33066;49.296;14.470;2023-02-17T11:09:58;97380.93;;;13.86;37.99
47082;BME280;33066;49.296;14.470;2023-02-17T11:12:23;97372.64;;;14.15;37.58
47082;BME280;33066;49.296;14.470;2023-02-17T11:14:47;97365.37;;;14.29;37.45
47082;BME280;33066;49.296;14.470;2023-02-17T11:17:14;97362.43;;;14.19;37.40
47082;BME280;33066;49.296;14.470;2023-02-17T11:19:36;97359.84;;;14.16;37.26
47082;BME280;33066;49.296;14.470;2023-02-17T11:22:04;97360.97;;;14.32;37.21
47082;BME280;33066;49.296;14.470;2023-02-17T11:24:28;97355.40;;;14.69;36.87
47082;BME280;33066;49.296;14.470;2023-02-17T11:26:58;97350.08;;;14.80;36.74
47082;BME280;33066;49.296;14.470;2023-02-17T11:29:22;97348.41;;;14.94;36.57
47082;BME280;33066;49.296;14.470;2023-02-17T11:34:11;97338.42;;;15.06;36.54
47082;BME280;33066;49.296;14.470;2023-02-17T11:36:34;97337.59;;;15.06;36.64
47082;BME280;33066;49.296;14.470;2023-02-17T11:39:18;97327.59;;;15.13;36.63
47082;BME280;33066;49.296;14.470;2023-02-17T11:41:25;97326.92;;;15.26;36.46
47082;BME280;33066;49.296;14.470;2023-02-17T11:43:53;97328.66;;;15.20;36.41
47082;BME280;33066;49.296;14.470;2023-02-17T11:46:22;97332.06;;;15.29;36.46
47082;BME280;33066;49.296;14.470;2023-02-17T11:51:09;97334.75;;;15.32;36.49
47082;BME280;33066;49.296;14.470;2023-02-17T11:53:45;97333.33;;;15.08;36.64
47082;BME280;33066;49.296;14.470;2023-02-17T11:56:11;97330.83;;;15.31;36.55
47082;BME280;33066;49.296;14.470;2023-02-17T11:58:31;97332.73;;;15.08;36.52
47082;BME280;33066;49.296;14.470;2023-02-17T12:00:55;97324.25;;;15.27;36.56
47082;BME280;33066;49.296;14.470;2023-02-17T12:03:31;97322.28;;;15.34;36.80
47082;BME280;33066;49.296;14.470;2023-02-17T12:05:51;97317.99;;;15.07;36.75
47082;BME280;33066;49.296;14.470;2023-02-17T12:08:14;97313.15;;;15.02;36.52
47082;BME280;33066;49.296;14.470;2023-02-17T12:10:39;97315.68;;;14.96;36.86
47082;BME280;33066;49.296;14.470;2023-02-17T12:13:04;97318.92;;;14.80;36.92
47082;BME280;33066;49.296;14.470;2023-02-17T12:15:33;97318.51;;;15.00;36.99
47082;BME280;33066;49.296;14.470;2023-02-17T12:17:54;97315.18;;;15.26;36.76
47082;BME280;33066;49.296;14.470;2023-02-17T12:20:32;97302.13;;;15.51;37.33
47082;BME280;33066;49.296;14.470;2023-02-17T12:22:44;97295.66;;;15.25;36.45
47082;BME280;33066;49.296;14.470;2023-02-17T12:27:40;97278.79;;;15.52;36.10
47082;BME280;33066;49.296;14.470;2023-02-17T12:30:18;97280.83;;;15.15;36.17
47082;BME280;33066;49.296;14.470;2023-02-17T12:32:33;97285.03;;;15.14;36.30
47082;BME280;33066;49.296;14.470;2023-02-17T12:34:52;97282.31;;;15.24;36.02
47082;BME280;33066;49.296;14.470;2023-02-17T12:37:18;97282.35;;;15.07;36.28
47082;BME280;33066;49.296;14.470;2023-02-17T12:39:42;97275.10;;;15.09;36.58
47082;BME280;33066;49.296;14.470;2023-02-17T12:42:06;97270.13;;;15.26;36.44
47082;BME280;33066;49.296;14.470;2023-02-17T12:44:30;97262.60;;;15.02;36.68
47082;BME280;33066;49.296;14.470;2023-02-17T12:46:57;97264.36;;;14.88;36.56
47082;BME280;33066;49.296;14.470;2023-02-17T12:49:20;97265.83;;;14.88;36.69
47082;BME280;33066;49.296;14.470;2023-02-17T12:51:47;97265.32;;;14.89;36.72
47082;BME280;33066;49.296;14.470;2023-02-17T12:54:16;97263.81;;;14.81;36.77
47082;BME280;33066;49.296;14.470;2023-02-17T12:56:47;97266.03;;;14.78;36.85
47082;BME280;33066;49.296;14.470;2023-02-17T13:01:30;97256.09;;;14.87;37.07
47082;BME280;33066;49.296;14.470;2023-02-17T13:03:50;97257.77;;;14.95;36.86